Time;durP1;ratioP1;P1;durP2;ratioP2;P2;SDS_P1;SDS_P2;PMS_P1;PMS_P2;Temp;Humidity;BMP_temperature;BMP_pressure;BME280_temperature;BME280_humidity;BME280_pressure;Samples;Min_cycle;Max_cycle;Signal;HPM_P1;HPM_P2
2022/02/20 00:02:04;;;;;;;1.20;0.30;;;13.10;60.80;;;;;;4863547;29;20377;-78
2022/02/20 00:04:30;;;;;;;1.05;0.20;;;13.10;60.60;;;;;;4863799;29;20061;-77
2022/02/20 00:06:56;;;;;;;0.98;0.10;;;13.10;60.70;;;;;;4862497;29;20068;-77
2022/02/20 00:09:22;;;;;;;1.63;0.30;;;13.10;60.60;;;;;;4863828;29;20046;-76
2022/02/20 00:11:47;;;;;;;0.85;0.20;;;13.10;60.60;;;;;;4863496;29;20086;-76
2022/02/20 00:14:13;;;;;;;2.45;0.20;;;13.10;60.70;;;;;;4862775;29;20061;-78
2022/02/20 00:16:39;;;;;;;4.38;0.98;;;13.00;60.50;;;;;;4863553;29;20478;-77
2022/02/20 00:19:05;;;;;;;0.47;0.38;;;13.00;60.40;;;;;;4863387;29;20049;-77
2022/02/20 00:21:31;;;;;;;1.35;0.28;;;13.00;60.50;;;;;;4863365;29;20110;-78
2022/02/20 00:23:57;;;;;;;1.05;0.20;;;13.00;60.50;;;;;;4863270;29;20068;-80
2022/02/20 00:26:22;;;;;;;0.75;0.20;;;13.00;60.50;;;;;;4863853;29;20347;-77
2022/02/20 00:28:48;;;;;;;0.38;0.13;;;12.90;60.40;;;;;;4863297;29;20146;-78
2022/02/20 00:31:14;;;;;;;0.90;0.20;;;12.90;60.30;;;;;;4863179;29;20065;-78
2022/02/20 00:33:39;;;;;;;0.88;0.20;;;12.90;60.30;;;;;;4863320;29;20498;-78
2022/02/20 00:36:05;;;;;;;1.13;0.10;;;12.90;60.60;;;;;;4863446;29;20049;-77
2022/02/20 00:38:31;;;;;;;0.28;0.10;;;12.90;60.50;;;;;;4863296;29;20046;-77
2022/02/20 00:40:57;;;;;;;1.75;0.20;;;12.90;60.60;;;;;;4863138;29;20042;-79
2022/02/20 00:43:22;;;;;;;0.60;0.30;;;12.90;60.50;;;;;;4862901;29;20049;-76
2022/02/20 00:45:48;;;;;;;0.47;0.10;;;12.90;60.50;;;;;;4863500;29;20105;-77
2022/02/20 00:48:18;;;;;;;0.35;0.10;;;12.90;60.60;;;;;;4863038;29;20049;-77
2022/02/20 00:50:45;;;;;;;1.08;0.10;;;12.90;60.70;;;;;;4863090;29;20151;-78
2022/02/20 00:53:11;;;;;;;0.15;0.10;;;12.80;60.60;;;;;;4862828;29;20090;-77
2022/02/20 00:55:37;;;;;;;1.80;0.15;;;12.80;60.70;;;;;;4862841;29;20053;-78
2022/02/20 00:58:03;;;;;;;0.35;0.20;;;12.80;60.80;;;;;;4862990;29;20053;-79
2022/02/20 01:00:29;;;;;;;1.65;0.30;;;12.80;60.70;;;;;;4846695;29;20117;-78
2022/02/20 01:02:54;;;;;;;0.38;0.13;;;12.90;60.80;;;;;;4862948;29;20046;-77
2022/02/20 01:05:20;;;;;;;0.28;0.10;;;12.90;60.60;;;;;;4862815;29;20066;-78
2022/02/20 01:07:46;;;;;;;0.30;0.10;;;12.90;60.70;;;;;;4861910;29;20045;-78
2022/02/20 01:10:15;;;;;;;0.93;0.40;;;12.90;60.70;;;;;;4862493;29;20050;-78
2022/02/20 01:12:41;;;;;;;1.10;0.10;;;12.90;60.60;;;;;;4862180;29;20395;-78
2022/02/20 01:15:08;;;;;;;0.38;0.10;;;12.90;60.80;;;;;;4861964;29;20053;-78
2022/02/20 01:17:34;;;;;;;0.10;0.00;;;12.90;60.70;;;;;;4862882;29;20053;-77
2022/02/20 01:19:59;;;;;;;0.77;0.03;;;12.90;60.60;;;;;;4862768;29;20053;-78
2022/02/20 01:22:25;;;;;;;0.20;0.03;;;12.90;60.70;;;;;;4861833;29;20069;-79
2022/02/20 01:24:52;;;;;;;0.25;0.00;;;12.90;60.70;;;;;;4861803;29;20065;-78
2022/02/20 01:27:17;;;;;;;0.65;0.10;;;12.90;60.70;;;;;;4862852;29;20057;-78
2022/02/20 01:29:43;;;;;;;0.22;0.00;;;12.90;60.80;;;;;;4862943;29;20465;-79
2022/02/20 01:32:09;;;;;;;0.75;0.05;;;12.90;60.70;;;;;;4861790;29;20053;-77
2022/02/20 01:34:35;;;;;;;0.20;0.00;;;12.90;60.70;;;;;;4862546;29;20085;-76
2022/02/20 01:37:00;;;;;;;0.80;0.20;;;12.80;60.70;;;;;;4861669;29;20046;-77
2022/02/20 01:39:26;;;;;;;0.38;0.00;;;12.80;60.60;;;;;;4862940;29;20053;-78
2022/02/20 01:41:53;;;;;;;0.20;0.00;;;12.80;60.70;;;;;;4862388;29;20534;-77
2022/02/20 01:44:20;;;;;;;0.68;0.00;;;12.80;60.80;;;;;;4861528;29;20447;-79
2022/02/20 01:46:47;;;;;;;0.10;0.00;;;12.80;60.90;;;;;;4862374;29;20049;-77
2022/02/20 01:49:17;;;;;;;0.45;0.00;;;12.80;60.90;;;;;;4862445;29;20368;-77
2022/02/20 01:51:43;;;;;;;1.27;0.10;;;12.80;60.80;;;;;;4862136;29;20057;-78
2022/02/20 01:54:09;;;;;;;1.13;0.10;;;12.90;60.80;;;;;;4861718;29;20064;-78
2022/02/20 01:56:36;;;;;;;0.15;0.10;;;12.90;60.70;;;;;;4862085;29;20459;-77
2022/02/20 01:59:04;;;;;;;0.43;0.00;;;12.90;60.60;;;;;;4862200;29;20053;-80
2022/02/20 02:01:30;;;;;;;0.30;0.00;;;12.80;60.60;;;;;;4862383;29;20089;-79
2022/02/20 02:03:55;;;;;;;0.50;0.00;;;12.80;60.50;;;;;;4861987;29;20096;-78
2022/02/20 02:06:21;;;;;;;0.55;0.10;;;12.80;60.50;;;;;;4862870;29;20456;-77
2022/02/20 02:08:47;;;;;;;0.95;0.10;;;12.70;60.60;;;;;;4861430;29;20100;-78
2022/02/20 02:11:13;;;;;;;0.40;0.10;;;12.70;60.60;;;;;;4862210;29;20053;-77
2022/02/20 02:13:39;;;;;;;0.25;0.10;;;12.70;60.50;;;;;;4862010;29;20094;-78
2022/02/20 02:16:05;;;;;;;0.50;0.00;;;12.70;60.70;;;;;;4862188;29;20138;-77
2022/02/20 02:18:31;;;;;;;0.68;0.20;;;12.70;60.70;;;;;;4861966;29;20045;-77
2022/02/20 02:20:57;;;;;;;0.38;0.10;;;12.70;60.70;;;;;;4861245;29;20045;-77
2022/02/20 02:23:23;;;;;;;0.50;0.10;;;12.70;60.70;;;;;;4847015;29;20060;-77
2022/02/20 02:25:51;;;;;;;0.95;0.03;;;12.70;60.50;;;;;;4865652;29;20066;-76
2022/02/20 02:28:17;;;;;;;1.15;0.00;;;12.70;60.40;;;;;;4865482;29;20161;-78
2022/02/20 02:30:43;;;;;;;0.63;0.10;;;12.70;60.50;;;;;;4865725;29;20053;-78
2022/02/20 02:33:09;;;;;;;1.60;0.20;;;12.70;60.50;;;;;;4865325;29;20046;-77
2022/02/20 02:35:35;;;;;;;0.52;0.10;;;12.70;60.40;;;;;;4865665;29;20127;-77
2022/02/20 02:38:00;;;;;;;0.55;0.28;;;12.70;61.10;;;;;;4864992;29;20422;-78
2022/02/20 02:40:26;;;;;;;1.35;0.20;;;12.70;60.50;;;;;;4865154;29;20060;-78
2022/02/20 02:42:52;;;;;;;1.17;0.35;;;12.70;60.40;;;;;;4865423;29;20057;-76
2022/02/20 02:45:18;;;;;;;2.15;0.10;;;12.70;60.50;;;;;;4865252;29;20527;-78
2022/02/20 02:47:45;;;;;;;0.57;0.10;;;12.70;60.70;;;;;;4865002;29;20053;-78
2022/02/20 02:50:10;;;;;;;1.83;0.20;;;12.70;60.50;;;;;;4864986;29;20072;-78
2022/02/20 02:52:36;;;;;;;0.90;0.15;;;12.70;60.60;;;;;;4865211;29;20061;-77
2022/02/20 02:55:02;;;;;;;1.00;0.10;;;12.70;60.50;;;;;;4865472;29;20348;-78
2022/02/20 02:57:28;;;;;;;1.73;0.10;;;12.70;60.50;;;;;;4864873;29;20045;-77
2022/02/20 02:59:54;;;;;;;2.15;0.17;;;12.70;60.50;;;;;;4865234;29;20061;-77
2022/02/20 03:02:19;;;;;;;2.45;0.20;;;12.70;60.50;;;;;;4865521;29;20140;-80
2022/02/20 03:04:45;;;;;;;2.53;0.38;;;12.70;60.40;;;;;;4864865;29;20062;-77
2022/02/20 03:07:13;;;;;;;1.95;0.25;;;12.70;60.50;;;;;;4865235;29;20459;-78
2022/02/20 03:09:40;;;;;;;0.77;0.10;;;12.70;60.40;;;;;;4864847;29;20065;-78
2022/02/20 03:12:08;;;;;;;1.80;0.10;;;12.70;60.40;;;;;;4864812;29;20049;-76
2022/02/20 03:14:34;;;;;;;0.90;0.20;;;12.70;60.40;;;;;;4865064;29;20371;-77
2022/02/20 03:17:00;;;;;;;0.43;0.20;;;12.70;60.40;;;;;;4848280;29;20049;-77
2022/02/20 03:19:26;;;;;;;1.80;0.20;;;12.70;60.30;;;;;;4863810;29;20049;-77
2022/02/20 03:21:51;;;;;;;0.85;0.10;;;12.70;60.50;;;;;;4864514;29;20367;-76
2022/02/20 03:24:17;;;;;;;1.90;0.17;;;12.70;60.40;;;;;;4864647;29;20497;-78
2022/02/20 03:26:43;;;;;;;1.45;0.30;;;12.70;60.40;;;;;;4864654;29;20053;-78
2022/02/20 03:29:08;;;;;;;0.88;0.32;;;12.70;60.30;;;;;;4864947;29;20340;-78
2022/02/20 03:31:34;;;;;;;2.20;0.20;;;12.70;60.40;;;;;;4864108;29;20060;-79
2022/02/20 03:34:00;;;;;;;2.47;0.30;;;12.60;60.30;;;;;;4864177;29;20064;-77
2022/02/20 03:36:26;;;;;;;3.65;0.50;;;12.60;60.40;;;;;;4863760;29;20057;-78
2022/02/20 03:38:52;;;;;;;0.80;0.25;;;12.60;60.40;;;;;;4864170;29;20489;-78
2022/02/20 03:41:17;;;;;;;0.40;0.10;;;12.60;60.40;;;;;;4864322;29;20482;-77
2022/02/20 03:43:43;;;;;;;1.00;0.28;;;12.60;60.20;;;;;;4864305;29;20121;-77
2022/02/20 03:46:09;;;;;;;0.52;0.20;;;12.60;60.20;;;;;;4863143;29;20140;-78
2022/02/20 03:48:35;;;;;;;3.55;0.30;;;12.60;60.30;;;;;;4864003;29;20045;-77
2022/02/20 03:51:01;;;;;;;1.23;0.30;;;12.60;60.30;;;;;;4863225;29;20060;-77
2022/02/20 03:53:26;;;;;;;3.53;0.60;;;12.50;60.10;;;;;;4864019;29;20045;-76
2022/02/20 03:55:52;;;;;;;0.80;0.28;;;12.50;60.20;;;;;;4864108;29;20069;-77
2022/02/20 03:58:18;;;;;;;1.17;0.30;;;12.50;60.20;;;;;;4864119;29;20053;-79
2022/02/20 04:00:44;;;;;;;1.88;0.28;;;12.50;60.30;;;;;;4863826;29;20085;-77
2022/02/20 04:03:09;;;;;;;0.85;0.20;;;12.50;60.30;;;;;;4863669;29;20049;-78
2022/02/20 04:05:35;;;;;;;2.05;0.20;;;12.50;60.30;;;;;;4864555;29;20057;-78
2022/02/20 04:08:01;;;;;;;1.05;0.30;;;12.40;60.20;;;;;;4863815;29;20401;-78
2022/02/20 04:10:27;;;;;;;1.58;0.20;;;12.40;60.20;;;;;;4864009;29;20122;-78
2022/02/20 04:12:53;;;;;;;2.63;0.20;;;12.40;60.20;;;;;;4862632;29;20057;-78
2022/02/20 04:15:18;;;;;;;2.08;0.43;;;12.40;60.20;;;;;;4863800;29;20073;-77
2022/02/20 04:17:48;;;;;;;1.98;0.45;;;12.40;60.30;;;;;;4863374;29;20141;-77
2022/02/20 04:20:16;;;;;;;0.60;0.30;;;12.40;60.10;;;;;;4862333;29;20064;-78
2022/02/20 04:22:45;;;;;;;1.75;0.30;;;12.40;60.10;;;;;;4863798;29;20053;-79
2022/02/20 04:25:12;;;;;;;1.58;0.30;;;12.40;60.20;;;;;;4863096;29;20054;-78
2022/02/20 04:27:38;;;;;;;1.25;0.20;;;12.40;60.10;;;;;;4863701;29;20049;-77
2022/02/20 04:30:06;;;;;;;0.90;0.10;;;12.30;60.00;;;;;;4861928;29;20064;-76
2022/02/20 04:32:32;;;;;;;2.65;0.30;;;12.40;60.30;;;;;;4862546;29;20080;-77
2022/02/20 04:34:57;;;;;;;1.80;0.30;;;12.40;60.20;;;;;;4862623;29;20067;-76
2022/02/20 04:37:23;;;;;;;1.35;0.30;;;12.30;60.20;;;;;;4863262;29;20478;-78
2022/02/20 04:39:49;;;;;;;1.38;0.25;;;12.40;60.30;;;;;;4863527;29;20041;-77
2022/02/20 04:42:15;;;;;;;2.33;0.40;;;12.30;60.20;;;;;;4863990;29;20049;-76
2022/02/20 04:44:40;;;;;;;1.83;0.38;;;12.30;60.20;;;;;;4861844;29;20060;-77
2022/02/20 04:47:06;;;;;;;2.95;0.30;;;12.30;60.20;;;;;;4862895;29;20483;-78
2022/02/20 04:49:32;;;;;;;1.50;0.30;;;12.20;60.00;;;;;;4862508;29;20133;-76
2022/02/20 04:51:58;;;;;;;3.28;0.43;;;12.20;60.30;;;;;;4863193;29;20046;-76
2022/02/20 04:54:24;;;;;;;0.95;0.30;;;12.30;60.30;;;;;;4863002;29;20136;-77
2022/02/20 04:56:50;;;;;;;1.42;0.20;;;12.20;60.40;;;;;;4863629;29;20053;-76
2022/02/20 04:59:16;;;;;;;1.98;0.35;;;12.20;60.30;;;;;;4863599;29;20049;-78
2022/02/20 05:01:43;;;;;;;1.42;0.22;;;12.20;60.40;;;;;;4862876;29;20049;-76
2022/02/20 05:04:08;;;;;;;2.83;0.38;;;12.20;60.40;;;;;;4862449;29;20061;-76
2022/02/20 05:06:34;;;;;;;0.70;0.30;;;12.20;60.40;;;;;;4862931;29;20053;-76
2022/02/20 05:09:01;;;;;;;1.13;0.30;;;12.20;60.40;;;;;;4862733;29;20122;-76
2022/02/20 05:11:28;;;;;;;1.25;0.28;;;12.10;60.50;;;;;;4862867;29;20049;-77
2022/02/20 05:13:58;;;;;;;2.33;0.35;;;12.10;60.50;;;;;;4862795;29;20082;-78
2022/02/20 05:16:25;;;;;;;0.77;0.25;;;12.10;60.70;;;;;;4861629;29;20066;-77
2022/02/20 05:18:51;;;;;;;0.98;0.20;;;12.10;60.60;;;;;;4862660;29;20053;-79
2022/02/20 05:21:17;;;;;;;1.13;0.20;;;12.10;61.20;;;;;;4862853;29;20057;-77
2022/02/20 05:23:43;;;;;;;0.50;0.30;;;12.10;60.70;;;;;;4831445;29;20088;-78
2022/02/20 05:26:09;;;;;;;1.77;0.20;;;12.10;60.90;;;;;;4863470;29;20071;-78
2022/02/20 05:28:35;;;;;;;1.88;0.40;;;12.00;60.80;;;;;;4860597;29;20522;-76
2022/02/20 05:31:00;;;;;;;3.40;0.30;;;12.00;60.90;;;;;;4861934;29;20061;-77
2022/02/20 05:33:26;;;;;;;9.40;0.40;;;12.10;61.00;;;;;;4861301;29;20057;-76
2022/02/20 05:35:54;;;;;;;6.00;0.50;;;12.20;61.10;;;;;;4861220;29;20046;-83
2022/02/20 05:38:20;;;;;;;2.00;0.40;;;12.30;61.10;;;;;;4857302;29;20041;-81
2022/02/20 05:40:45;;;;;;;4.07;0.47;;;12.50;60.50;;;;;;4862785;29;20053;-77
2022/02/20 05:43:11;;;;;;;2.47;0.45;;;12.50;59.70;;;;;;4860829;29;20207;-77
2022/02/20 05:45:37;;;;;;;3.95;0.50;;;12.60;59.20;;;;;;4862270;29;20057;-78
2022/02/20 05:48:04;;;;;;;3.95;0.60;;;12.60;58.80;;;;;;4862275;29;20443;-74
2022/02/20 05:50:30;;;;;;;3.67;0.50;;;12.60;58.60;;;;;;4862377;29;20060;-70
2022/02/20 05:52:56;;;;;;;4.40;0.40;;;12.60;58.70;;;;;;4862385;29;20528;-75
2022/02/20 05:55:22;;;;;;;5.55;0.50;;;12.60;58.90;;;;;;4861637;29;20053;-75
2022/02/20 05:57:53;;;;;;;3.45;0.60;;;12.70;58.80;;;;;;4862138;29;20053;-73
2022/02/20 06:00:25;;;;;;;3.55;0.55;;;12.80;58.90;;;;;;4865182;29;20092;-74
2022/02/20 06:02:51;;;;;;;7.72;0.50;;;13.00;59.10;;;;;;4864748;29;20045;-78
2022/02/20 06:05:17;;;;;;;2.70;0.43;;;13.10;59.60;;;;;;4865822;29;20058;-77
2022/02/20 06:07:43;;;;;;;4.00;0.80;;;13.00;59.10;;;;;;4866025;29;20062;-75
2022/02/20 06:10:09;;;;;;;7.60;0.88;;;13.00;60.40;;;;;;4865672;29;20439;-75
2022/02/20 06:12:35;;;;;;;1.98;0.50;;;13.40;60.20;;;;;;4866011;29;20101;-75
2022/02/20 06:15:01;;;;;;;2.80;0.65;;;13.80;59.90;;;;;;4865492;29;20136;-77
2022/02/20 06:17:27;;;;;;;4.05;0.38;;;14.10;59.60;;;;;;4865072;29;20064;-77
2022/02/20 06:19:53;;;;;;;3.63;0.55;;;14.30;59.30;;;;;;4865680;29;20132;-73
2022/02/20 06:22:19;;;;;;;3.45;0.43;;;14.00;58.70;;;;;;4865584;29;20037;-76
2022/02/20 06:24:45;;;;;;;3.22;0.40;;;14.40;59.30;;;;;;4849291;29;20045;-77
2022/02/20 06:27:11;;;;;;;19.30;0.88;;;14.60;59.20;;;;;;4865407;29;20064;-77
2022/02/20 06:29:37;;;;;;;5.20;0.77;;;14.80;58.90;;;;;;4865914;29;20058;-78
2022/02/20 06:32:03;;;;;;;30.00;1.95;;;15.00;58.70;;;;;;4865267;29;20091;-78
2022/02/20 06:34:29;;;;;;;4.18;0.70;;;15.10;56.00;;;;;;4865664;29;20421;-77
2022/02/20 06:36:55;;;;;;;8.77;0.68;;;14.70;58.30;;;;;;4864816;29;20049;-75
2022/02/20 06:39:21;;;;;;;10.38;1.38;;;14.80;59.40;;;;;;4864238;29;20110;-74
2022/02/20 06:41:47;;;;;;;8.98;0.93;;;15.00;59.60;;;;;;4864004;29;20045;-75
2022/02/20 06:44:12;;;;;;;8.70;0.90;;;15.10;59.70;;;;;;4865129;29;20038;-77
2022/02/20 06:46:38;;;;;;;8.52;0.95;;;15.20;59.90;;;;;;4864362;29;20450;-76
2022/02/20 06:49:08;;;;;;;10.30;1.05;;;15.30;60.10;;;;;;4864424;29;20079;-77
2022/02/20 06:51:35;;;;;;;10.88;1.80;;;15.40;60.00;;;;;;4864299;29;20085;-78
2022/02/20 06:54:01;;;;;;;12.50;1.50;;;15.50;59.80;;;;;;4848873;29;20054;-78
2022/02/20 06:56:27;;;;;;;7.93;1.08;;;15.60;59.70;;;;;;4864963;29;20041;-76
2022/02/20 06:58:59;;;;;;;5.20;0.55;;;15.70;59.80;;;;;;4864694;29;20328;-81
2022/02/20 07:01:25;;;;;;;6.57;0.90;;;15.80;60.40;;;;;;4848338;29;20535;-78
2022/02/20 07:03:51;;;;;;;12.90;1.13;;;15.90;59.70;;;;;;4864767;29;20065;-79
2022/02/20 07:06:17;;;;;;;5.28;0.82;;;15.90;59.40;;;;;;4864792;29;20128;-78
2022/02/20 07:08:43;;;;;;;7.30;0.68;;;16.00;59.80;;;;;;4864314;29;20145;-79
2022/02/20 07:11:09;;;;;;;6.40;0.70;;;16.00;60.00;;;;;;4863731;29;20053;-78
2022/02/20 07:13:35;;;;;;;5.97;0.93;;;16.10;60.10;;;;;;4864903;29;20053;-78
2022/02/20 07:16:01;;;;;;;2.05;0.65;;;16.20;60.00;;;;;;4863689;29;20125;-78
2022/02/20 07:18:27;;;;;;;12.73;1.42;;;16.40;60.20;;;;;;4864790;29;20136;-78
2022/02/20 07:20:52;;;;;;;8.35;0.65;;;16.40;60.10;;;;;;4864592;29;20488;-78
2022/02/20 07:23:18;;;;;;;5.57;0.82;;;16.40;59.80;;;;;;4864555;29;20050;-78
2022/02/20 07:25:44;;;;;;;6.95;0.80;;;16.20;59.10;;;;;;4847819;29;20144;-79
2022/02/20 07:28:10;;;;;;;2.42;0.38;;;16.30;59.70;;;;;;4854183;29;20064;-79
2022/02/20 07:30:36;;;;;;;4.85;1.08;;;16.40;59.80;;;;;;4846353;29;20046;-80
2022/02/20 07:33:08;;;;;;;5.20;0.50;;;16.50;59.70;;;;;;4855260;29;20490;-75
2022/02/20 07:35:37;;;;;;;3.20;0.52;;;16.50;59.50;;;;;;4846236;29;20049;-75
2022/02/20 07:38:04;;;;;;;6.97;1.02;;;16.00;57.50;;;;;;4863966;29;20081;-77
2022/02/20 07:40:30;;;;;;;8.80;0.80;;;16.10;56.50;;;;;;4863065;29;20045;-76
2022/02/20 07:42:57;;;;;;;4.57;0.70;;;16.20;59.20;;;;;;4864080;29;20045;-77
2022/02/20 07:45:23;;;;;;;2.42;0.50;;;16.30;59.30;;;;;;4864140;29;20053;-77
2022/02/20 07:48:02;;;;;;;5.25;0.80;;;16.40;59.00;;;;;;4864193;29;20089;-76
2022/02/20 07:50:31;;;;;;;5.10;0.88;;;16.40;58.50;;;;;;4864149;29;20109;-77
2022/02/20 07:52:57;;;;;;;6.32;0.80;;;16.50;59.10;;;;;;4863906;29;20042;-77
2022/02/20 07:55:24;;;;;;;10.65;0.60;;;16.60;59.30;;;;;;4864144;29;20448;-76
2022/02/20 07:57:50;;;;;;;7.20;1.00;;;16.60;59.30;;;;;;4863951;29;20049;-76
2022/02/20 08:00:22;;;;;;;7.40;0.90;;;16.70;59.20;;;;;;4864013;29;20375;-74
2022/02/20 08:02:50;;;;;;;4.55;1.35;;;16.70;59.40;;;;;;4862609;29;20105;-77
2022/02/20 08:05:16;;;;;;;10.10;0.70;;;16.70;59.40;;;;;;4864677;29;20092;-77
2022/02/20 08:07:42;;;;;;;7.35;0.98;;;16.70;59.20;;;;;;4863770;29;20091;-76
2022/02/20 08:10:08;;;;;;;6.13;1.35;;;16.70;54.90;;;;;;4863483;29;20079;-74
2022/02/20 08:12:34;;;;;;;7.97;0.98;;;16.50;59.30;;;;;;4862536;29;20053;-75
2022/02/20 08:15:00;;;;;;;5.22;0.80;;;16.60;59.50;;;;;;4863831;29;20508;-81
2022/02/20 08:17:26;;;;;;;8.07;0.90;;;16.60;59.70;;;;;;4861166;29;20506;-74
2022/02/20 08:19:52;;;;;;;6.28;0.90;;;16.20;58.70;;;;;;4858421;29;20081;-80
2022/02/20 08:22:18;;;;;;;9.18;1.10;;;16.40;60.00;;;;;;4863209;29;20080;-82
2022/02/20 08:24:44;;;;;;;9.23;1.13;;;16.50;60.00;;;;;;4863451;29;20464;-78
2022/02/20 08:27:14;;;;;;;5.53;0.90;;;16.60;60.10;;;;;;4863666;29;20329;-76
2022/02/20 08:29:41;;;;;;;4.60;0.95;;;16.60;59.60;;;;;;4847446;29;20369;-79
2022/02/20 08:32:07;;;;;;;4.60;1.25;;;16.70;59.00;;;;;;4862468;29;20049;-74
2022/02/20 08:34:34;;;;;;;3.92;1.10;;;16.70;59.40;;;;;;4863277;29;20045;-77
2022/02/20 08:37:00;;;;;;;3.97;1.13;;;16.70;58.40;;;;;;4862296;29;20049;-75
2022/02/20 08:39:28;;;;;;;3.85;1.10;;;16.70;58.10;;;;;;4863705;29;20155;-76
2022/02/20 08:41:53;;;;;;;4.18;1.10;;;16.60;58.00;;;;;;4862449;29;20061;-75
2022/02/20 08:44:19;;;;;;;6.50;1.10;;;16.50;58.20;;;;;;4863335;29;20056;-74
2022/02/20 08:46:45;;;;;;;5.35;0.90;;;16.50;58.40;;;;;;4863218;29;20455;-74
2022/02/20 08:49:11;;;;;;;4.78;1.00;;;16.50;58.90;;;;;;4862558;29;20049;-75
2022/02/20 08:51:36;;;;;;;5.50;1.02;;;16.50;59.50;;;;;;4861432;29;20455;-73
2022/02/20 08:54:02;;;;;;;4.53;0.70;;;16.50;60.00;;;;;;4863086;29;20148;-82
2022/02/20 08:56:28;;;;;;;3.95;1.10;;;16.50;59.90;;;;;;4862914;29;20140;-73
2022/02/20 08:58:55;;;;;;;3.65;1.13;;;16.50;60.00;;;;;;4853203;29;20134;-74
2022/02/20 09:01:20;;;;;;;5.25;1.13;;;16.50;59.90;;;;;;4843658;29;20555;-75
2022/02/20 09:03:46;;;;;;;4.57;1.40;;;16.50;60.00;;;;;;4843998;29;20137;-75
2022/02/20 09:06:12;;;;;;;4.10;0.82;;;16.60;60.00;;;;;;4844946;29;20137;-73
2022/02/20 09:08:38;;;;;;;6.35;1.25;;;16.60;60.00;;;;;;4844482;29;20430;-74
2022/02/20 09:11:04;;;;;;;5.47;1.30;;;16.70;59.90;;;;;;4844704;29;20058;-76
2022/02/20 09:13:30;;;;;;;8.07;1.42;;;16.70;59.70;;;;;;4844044;29;20110;-74
2022/02/20 09:15:56;;;;;;;5.47;1.55;;;16.70;59.60;;;;;;4844377;29;20046;-77
2022/02/20 09:18:21;;;;;;;5.15;1.38;;;16.70;59.40;;;;;;4844819;29;20467;-75
2022/02/20 09:20:47;;;;;;;5.38;1.45;;;16.70;59.40;;;;;;4844296;29;20211;-74
2022/02/20 09:23:13;;;;;;;5.78;1.90;;;16.70;59.30;;;;;;4844323;29;20049;-75
2022/02/20 09:25:40;;;;;;;6.82;1.50;;;16.70;59.70;;;;;;4844637;29;20058;-74
2022/02/20 09:28:06;;;;;;;6.45;1.52;;;16.70;59.40;;;;;;4845060;29;20103;-75
2022/02/20 09:30:31;;;;;;;7.70;2.20;;;16.70;59.40;;;;;;4844368;29;20050;-74
2022/02/20 09:32:57;;;;;;;9.00;1.98;;;16.80;59.40;;;;;;4844422;29;20053;-75
2022/02/20 09:35:24;;;;;;;8.70;1.92;;;16.70;59.40;;;;;;4848929;29;20535;-74
2022/02/20 09:37:50;;;;;;;8.88;2.38;;;16.80;59.30;;;;;;4848040;29;20054;-75
2022/02/20 09:40:16;;;;;;;8.18;2.05;;;16.80;59.30;;;;;;4852847;29;20451;-75
2022/02/20 09:42:42;;;;;;;7.40;2.03;;;16.80;59.20;;;;;;4866437;29;20065;-73
2022/02/20 09:45:08;;;;;;;5.85;1.75;;;16.80;59.20;;;;;;4867036;29;20096;-74
2022/02/20 09:47:39;;;;;;;8.02;2.33;;;16.90;59.20;;;;;;4865495;29;20089;-75
2022/02/20 09:50:06;;;;;;;10.25;2.28;;;16.90;59.00;;;;;;4865223;29;20069;-72
2022/02/20 09:52:32;;;;;;;9.60;1.73;;;16.90;59.20;;;;;;4866173;29;20092;-75
2022/02/20 09:54:57;;;;;;;6.20;1.95;;;16.90;59.00;;;;;;4865211;29;20382;-75
2022/02/20 09:57:23;;;;;;;10.07;2.60;;;16.90;59.20;;;;;;4865005;29;20045;-74
2022/02/20 09:59:49;;;;;;;10.27;2.33;;;17.00;59.40;;;;;;4865877;29;20060;-77
2022/02/20 10:02:18;;;;;;;7.65;2.10;;;17.00;59.40;;;;;;4865486;29;20052;-76
2022/02/20 10:04:47;;;;;;;9.30;2.35;;;16.90;59.40;;;;;;4849675;29;20062;-75
2022/02/20 10:07:29;;;;;;;11.15;2.70;;;17.00;59.60;;;;;;4864583;29;20045;-73
2022/02/20 10:09:57;;;;;;;9.27;1.90;;;17.00;59.60;;;;;;4849364;29;20054;-79
2022/02/20 10:12:26;;;;;;;11.88;3.25;;;17.00;59.60;;;;;;4865575;29;20062;-73
2022/02/20 10:14:52;;;;;;;8.15;2.67;;;17.00;59.50;;;;;;4865500;29;20092;-80
2022/02/20 10:17:26;;;;;;;10.23;2.80;;;17.00;59.30;;;;;;4865962;29;20045;-73
2022/02/20 10:19:54;;;;;;;7.95;2.22;;;17.00;58.40;;;;;;4865126;29;20053;-77
2022/02/20 10:22:35;;;;;;;8.82;2.10;;;16.80;59.60;;;;;;4863668;29;20367;-81
2022/02/20 10:25:12;;;;;;;9.50;2.58;;;16.90;59.50;;;;;;4865489;29;20045;-71
2022/02/20 10:27:53;;;;;;;8.57;2.58;;;17.00;59.20;;;;;;4864311;29;20045;-72
2022/02/20 10:30:29;;;;;;;10.70;2.83;;;17.20;59.00;;;;;;4865249;29;20049;-77
2022/02/20 10:33:22;;;;;;;8.88;3.10;;;17.30;58.80;;;;;;4864936;29;20110;-72
2022/02/20 10:35:51;;;;;;;11.00;2.58;;;17.40;58.40;;;;;;4844950;29;20462;-76
2022/02/20 10:38:22;;;;;;;9.18;3.08;;;17.50;58.30;;;;;;4861091;29;20086;-75
2022/02/20 10:40:52;;;;;;;10.73;2.78;;;17.60;58.00;;;;;;4865507;29;20100;-77
2022/02/20 10:43:33;;;;;;;11.23;2.95;;;17.50;58.50;;;;;;4865486;29;20129;-74
2022/02/20 10:46:26;;;;;;;19.60;3.92;;;17.60;57.60;;;;;;4862854;29;20050;-78
2022/02/20 10:48:52;;;;;;;13.60;3.42;;;17.60;57.60;;;;;;4862079;29;20099;-76
2022/02/20 10:51:20;;;;;;;14.70;3.72;;;17.60;57.70;;;;;;4864492;29;20522;-75
2022/02/20 10:53:50;;;;;;;9.50;3.08;;;17.70;57.60;;;;;;4864390;29;20071;-83
2022/02/20 10:56:17;;;;;;;11.20;3.67;;;17.70;57.50;;;;;;4864449;29;20046;-74
2022/02/20 10:58:45;;;;;;;12.57;3.47;;;17.70;57.50;;;;;;4864064;29;20041;-79
2022/02/20 11:01:43;;;;;;;13.18;3.70;;;17.70;57.60;;;;;;4864548;29;20114;-75
2022/02/20 11:04:11;;;;;;;22.58;4.38;;;17.60;57.80;;;;;;4815216;29;20134;-79
2022/02/20 11:06:38;;;;;;;14.45;3.70;;;17.40;57.70;;;;;;4845688;29;20065;-80
2022/02/20 11:09:07;;;;;;;19.45;5.35;;;17.50;58.40;;;;;;4845172;29;20061;-78
2022/02/20 11:11:42;;;;;;;18.58;4.78;;;17.40;58.10;;;;;;4849731;29;20133;-75
2022/02/20 11:14:13;;;;;;;19.83;5.57;;;17.40;58.20;;;;;;4864072;29;20120;-81
2022/02/20 11:16:45;;;;;;;17.25;4.78;;;17.40;57.90;;;;;;4848199;29;20451;-77
2022/02/20 11:19:14;;;;;;;15.05;4.22;;;17.30;57.90;;;;;;4864478;29;20117;-78
2022/02/20 11:21:43;;;;;;;16.17;4.93;;;17.30;58.10;;;;;;4863985;29;20049;-81
2022/02/20 11:24:10;;;;;;;18.48;6.03;;;17.20;58.80;;;;;;4864591;29;20068;-79
2022/02/20 11:26:38;;;;;;;32.53;21.27;;;17.30;59.10;;;;;;4863543;29;20471;-78
2022/02/20 11:29:04;;;;;;;27.48;7.18;;;17.20;58.90;;;;;;4863722;29;20068;-77
2022/02/20 11:31:31;;;;;;;27.10;6.72;;;17.00;58.50;;;;;;4864421;29;20479;-77
2022/02/20 11:33:58;;;;;;;44.13;8.88;;;16.60;58.40;;;;;;4864677;29;20060;-73
2022/02/20 11:36:27;;;;;;;28.00;7.70;;;16.30;58.90;;;;;;4864048;29;20049;-78
2022/02/20 11:39:11;;;;;;;28.60;7.40;;;15.90;60.10;;;;;;4848072;29;20132;-76
2022/02/20 11:41:38;;;;;;;;;;;15.50;61.20;;;;;;4864451;29;20053;-70
2022/02/20 11:44:12;;;;;;;28.13;7.13;;;15.30;62.00;;;;;;4864311;29;19983;-74
2022/02/20 11:46:52;;;;;;;27.42;7.00;;;15.10;62.60;;;;;;4860351;29;20053;-74
2022/02/20 11:49:26;;;;;;;31.05;7.63;;;15.10;63.00;;;;;;4864031;29;20057;-73
2022/02/20 11:52:05;;;;;;;30.88;7.90;;;15.10;63.10;;;;;;4863611;29;20046;-74
2022/02/20 11:54:39;;;;;;;33.58;8.07;;;15.10;63.00;;;;;;4860177;29;20048;-79
2022/02/20 11:57:22;;;;;;;34.15;8.30;;;15.00;63.60;;;;;;4863206;29;20049;-84
2022/02/20 12:00:04;;;;;;;30.63;9.18;;;14.80;63.90;;;;;;4862828;29;20053;-79
2022/02/20 12:02:30;;;;;;;28.98;7.63;;;14.70;64.50;;;;;;4862592;29;20061;-76
2022/02/20 12:04:56;;;;;;;25.27;7.28;;;14.60;65.40;;;;;;4863357;29;20103;-73
2022/02/20 12:07:37;;;;;;;27.85;7.28;;;14.70;65.90;;;;;;4846971;29;20061;-76
2022/02/20 12:10:19;;;;;;;20.48;5.80;;;15.00;65.50;;;;;;4862675;29;20536;-75
2022/02/20 12:12:56;;;;;;;19.52;5.95;;;15.30;64.50;;;;;;4859230;29;20085;-77
2022/02/20 12:15:27;;;;;;;22.35;5.85;;;15.60;63.90;;;;;;4855219;29;20140;-75
2022/02/20 12:18:11;;;;;;;19.65;6.38;;;15.80;63.60;;;;;;4847428;29;20061;-76
2022/02/20 12:20:55;;;;;;;19.63;6.55;;;16.10;63.20;;;;;;4866536;29;20045;-78
2022/02/20 12:23:27;;;;;;;21.17;5.70;;;16.20;62.30;;;;;;4882912;29;20045;-78
2022/02/20 12:25:54;;;;;;;16.35;5.68;;;16.30;62.50;;;;;;4881776;29;20056;-77
2022/02/20 12:28:42;;;;;;;21.63;6.53;;;16.40;62.50;;;;;;4882064;29;20053;-76
2022/02/20 12:31:30;;;;;;;18.92;6.25;;;16.50;62.60;;;;;;4882056;29;20049;-76
2022/02/20 12:33:55;;;;;;;23.25;5.93;;;16.60;62.70;;;;;;4868978;29;20077;-77
2022/02/20 12:36:30;;;;;;;19.05;6.38;;;16.60;62.50;;;;;;4869960;29;20087;-76
2022/02/20 12:39:00;;;;;;;18.80;5.72;;;16.70;62.60;;;;;;4880870;29;20060;-77
2022/02/20 12:41:28;;;;;;;21.25;5.68;;;16.60;62.50;;;;;;4882036;29;20412;-77
2022/02/20 12:43:57;;;;;;;20.80;5.97;;;16.60;62.40;;;;;;4865448;29;20124;-76
2022/02/20 12:46:24;;;;;;;21.25;6.20;;;16.60;62.50;;;;;;4881026;29;20132;-76
2022/02/20 12:48:54;;;;;;;26.33;6.72;;;16.60;62.40;;;;;;4881913;29;20121;-76